Terminal Aerodrome Forecast
Issued by NWS Shreveport, LA

Home | Current Version | Previous Version | Text Only | Print | Product List | Glossary On
Versions: 1 2 3 4 5 6 7 8 9 10 11 12 13 14 15 16 17 18 19 20 21 22 23 24 25 26 27 28 29
000
FTUS44 KSHV 301147
TAFMLU
TAF
KMLU 301147Z 3012/0112 12004KT P6SM VCTS SCT030 BKN040CB
      TEMPO 3012/3016 VRB10G18KT 3SM TSRA BR SCT010 OVC040CB
     FM302000 19008KT P6SM VCTS OVC025CB
     FM010200 19005KT P6SM OVC035
     FM010300 17004KT P6SM OVC250
     FM010900 28003KT 4SM BR OVC007=

USA.gov is the U.S. government's official web portal to all federal, state and local government web resources and services.